Birchwood Airport
PABV : rendu visible

Aérodrome :











RETROUVEZ-NOUS SUR...

 
LOGIN :

S'inscrire | Disclaimer

   EN    FR    IT 

 









Légende :    VFR   VFR Marginal   IFR   IFR Intensif   IFR Très Intensif
Visi : 
Plafond : 
>= 8 km
>= 3000ft
5 à 8 km
1000 à 3000 ft
1500m à 5 km
500 à 1000 ft
800 à 1500m
200 à 500 ft
< 800m
< 200 ft
Symboles :   Orages  Brouillard  Fortes neiges  Fortes précipitations  Vent > 20 kt






- Altitude de l'aérodrome : 83 ft
- Code IATA : BCV


PABV - Birchwood

DERNIER METAR :
  • 300656Z AUTO 05021G34KT 10SM CLR M03/M20 A2989 RMK AO2 PK WND 08034/0656 SLP128 T10331200 FZRANO

METARs EXPIRÉS :
  • 300556Z AUTO 05017G31KT 10SM CLR M03/M20 A2987 RMK AO2 PK WND 06031/0549 SLP122 T10281200 11017 21033 53018 FZRANO
  • 300456Z AUTO 06020G27KT 10SM CLR M03/M19 A2985 RMK AO2 PK WND 07028/0415 SLP114 T10281189 FZRANO

TAF N/A



MET'MAP, la Météo Aéronautique d'un coup d'oeil ! - Copyright ORBIFLY Décembre 2007 - Disclaimer

ORBIFLY MET'MAP TEAM :

Programmation & Développement : Alexandra Zaïnal
Sur une idée originale de : Baudouin d'Aumeries
Assistance à la programmation : Marc-Olivier Méhu
Soutien technique & logistique : Manuel Goepfert

Contact : metmap@orbifly.com




SOURCES & CREDITS :

   NOAA       Earth
Advisory